This is the latest recevied weather packets stored in our database for station/object KC7UNY-13. If no packets are shown the sender has not sent any weather packets the latest 1 day(s).
| Time | Temp. | Humidity | Pressure | Rain* | Wind** | Luminosity | Snow |
|---|---|---|---|---|---|---|---|
| 1778001415 | 21.67° C | 52% | 1012 hPa | 0 mm | 1.34 m/s, 11° | 296 W/m² | - |
| 1778001112 | 21.11° C | 54% | 1011.9 hPa | 0 mm | 0.89 m/s, 322° | 266 W/m² | - |
| 1778000809 | 20.56° C | 55% | 1012.1 hPa | 0 mm | 0.45 m/s, 173° | 273 W/m² | - |
| 1778000506 | 21.11° C | 54% | 1011.9 hPa | 0 mm | 0.89 m/s, 19° | 195 W/m² | - |
| 1778000206 | 20.56° C | 56% | 1012 hPa | 0 mm | 0 m/s | 130 W/m² | - |
| 1777999903 | 21.11° C | 55% | 1011.9 hPa | 0 mm | 0.45 m/s, 330° | 151 W/m² | - |
| 1777999598 | 21.11° C | 55% | 1011.9 hPa | 0 mm | 0.89 m/s, 245° | 175 W/m² | - |
| 1777999296 | 21.67° C | 54% | 1011.9 hPa | 0 mm | 1.34 m/s, 327° | 215 W/m² | - |
| 1777998994 | 21.11° C | 55% | 1011.9 hPa | 0 mm | 0.89 m/s, 283° | 520 W/m² | - |
| 1777998691 | 20.56° C | 55% | 1011.8 hPa | 0 mm | 0.45 m/s, 12° | 173 W/m² | - |
| 1777998388 | 21.67° C | 54% | 1011.8 hPa | 0 mm | 2.24 m/s, 320° | 188 W/m² | - |
| 1777998086 | 21.67° C | 55% | 1011.7 hPa | 0 mm | 0.89 m/s, 3° | 616 W/m² | - |
| 1777997783 | 21.67° C | 54% | 1012 hPa | 0 mm | 0.45 m/s, 23° | 405 W/m² | - |
| 1777997480 | 21.11° C | 55% | 1011.9 hPa | 0 mm | 0.89 m/s, 22° | 641 W/m² | - |
| 1777997178 | 20.56° C | 56% | 1012 hPa | 0 mm | 0.89 m/s, 32° | 705 W/m² | - |
| 1777996875 | 20.56° C | 58% | 1012.1 hPa | 0 mm | 0.89 m/s, 287° | 468 W/m² | - |
| 1777996571 | 20.56° C | 60% | 1012 hPa | 0 mm | 0.45 m/s, 341° | 246 W/m² | - |
| 1777996268 | 20° C | 61% | 1012.2 hPa | 0 mm | 0.89 m/s, 336° | 228 W/m² | - |
| 1777995964 | 20.56° C | 58% | 1012.1 hPa | 0 mm | 1.34 m/s, 323° | 209 W/m² | - |
| 1777995660 | 20.56° C | 59% | 1012 hPa | 0 mm | 0.89 m/s, 168° | 251 W/m² | - |
| 1777995357 | 21.11° C | 58% | 1012 hPa | 0 mm | 0.89 m/s, 8° | 265 W/m² | - |
| 1777995055 | 20.56° C | 60% | 1011.6 hPa | 0 mm | 0.45 m/s, 354° | 362 W/m² | - |
| 1777994751 | 20.56° C | 62% | 1011.7 hPa | 0 mm | 0.45 m/s, 318° | 321 W/m² | - |
| 1777994447 | 20.56° C | 61% | 1011.7 hPa | 0 mm | 0.45 m/s, 43° | 199 W/m² | - |
| 1777994142 | 20° C | 63% | 1011.6 hPa | 0 mm | 0.45 m/s, 4° | 126 W/m² | - |
* Rain latest hour (hover to see other rain measurements)
** Current wind speed in m/s (hover to see current wind gust speed)